首页
METAR-TAF:

METAR-TAF

机场 :

Paulatuk, 西北特區, 加拿大

纬度: 69-21N, 经度: 124-02W, 海拔: 6米

当前天气观测

该预报发布于2小时和56分钟前的00:00 UTC
风速2节,风向南转南东
温度 -24°C
湿度 76%
气压 1006 hPa
能見度: 24.1公里
散云层高于5500英尺
多云层高于10000英尺

METAR: CYPC 230000Z 15002KT 15SM SCT055 BKN100 M24/M27 A2972 RMK SC3AC3 LAST STFD OBS/NEXT 231400 UTC SLP067

时间: 19:56 (02:56 UTC)

预报

该预报发布于8小时和18分钟前的18:38 UTC
预报有效从22日的 19点(UTC)到 22日的 24点(UTC)
风速3节,风向多变
能見度: 10公里
散云层高于2000英尺
阴天层高于5000英尺

TAF: CYPC 221838Z 2219/2224 VRB03KT P6SM SCT020 OVC050 RMK NXT FCST WILL BE ISSUED AT 231545Z

超过4000个机场的气象观测和天气预报(METAR&TAF报告)。

可查询的气象台以黄色和红色小点在地图上表示。

将鼠标移到小点上方,可查看气象台名称。

然后点击查看天气观测和预报。

如需切换地图:点击带黑十字的绿色按钮放大地图;点击带横线的绿色按钮缩小地图;或者点击绿色箭头查看邻近地区的地图。


METAR-TAF: